sensor_id;sensor_type;location;lat;lon;timestamp;P1;P2;P0
46681;PMS5003;34101;53.430;-2.224;2023-06-14T00:00:04;11;11;
46681;PMS5003;34101;53.430;-2.224;2023-06-14T00:02:32;10;9;
46681;PMS5003;34101;53.430;-2.224;2023-06-14T00:04:59;11;11;
46681;PMS5003;34101;53.430;-2.224;2023-06-14T00:07:35;11;11;
46681;PMS5003;34101;53.430;-2.224;2023-06-14T00:10:03;12;12;
46681;PMS5003;34101;53.430;-2.224;2023-06-14T00:12:32;14;12;
46681;PMS5003;34101;53.430;-2.224;2023-06-14T00:14:59;12;12;
46681;PMS5003;34101;53.430;-2.224;2023-06-14T00:17:32;11;11;
46681;PMS5003;34101;53.430;-2.224;2023-06-14T00:20:01;10;10;
46681;PMS5003;34101;53.430;-2.224;2023-06-14T00:22:30;11;10;
46681;PMS5003;34101;53.430;-2.224;2023-06-14T00:25:03;11;11;
46681;PMS5003;34101;53.430;-2.224;2023-06-14T00:27:31;10;10;
46681;PMS5003;34101;53.430;-2.224;2023-06-14T00:29:59;12;12;
46681;PMS5003;34101;53.430;-2.224;2023-06-14T00:32:26;12;10;
46681;PMS5003;34101;53.430;-2.224;2023-06-14T00:34:54;11;11;
46681;PMS5003;34101;53.430;-2.224;2023-06-14T00:37:21;12;12;
46681;PMS5003;34101;53.430;-2.224;2023-06-14T00:39:49;11;10;
46681;PMS5003;34101;53.430;-2.224;2023-06-14T00:42:24;9;9;
46681;PMS5003;34101;53.430;-2.224;2023-06-14T00:44:53;12;12;
46681;PMS5003;34101;53.430;-2.224;2023-06-14T00:47:21;14;12;
46681;PMS5003;34101;53.430;-2.224;2023-06-14T00:49:49;12;11;
46681;PMS5003;34101;53.430;-2.224;2023-06-14T00:52:17;12;12;
46681;PMS5003;34101;53.430;-2.224;2023-06-14T00:54:46;9;9;
46681;PMS5003;34101;53.430;-2.224;2023-06-14T00:57:14;13;13;
46681;PMS5003;34101;53.430;-2.224;2023-06-14T00:59:42;15;13;
46681;PMS5003;34101;53.430;-2.224;2023-06-14T01:02:12;10;10;
46681;PMS5003;34101;53.430;-2.224;2023-06-14T01:04:40;14;13;
46681;PMS5003;34101;53.430;-2.224;2023-06-14T01:07:10;9;8;
46681;PMS5003;34101;53.430;-2.224;2023-06-14T01:09:46;13;12;
46681;PMS5003;34101;53.430;-2.224;2023-06-14T01:12:35;10;10;
46681;PMS5003;34101;53.430;-2.224;2023-06-14T01:15:11;11;11;
46681;PMS5003;34101;53.430;-2.224;2023-06-14T01:17:41;13;12;
46681;PMS5003;34101;53.430;-2.224;2023-06-14T01:20:11;10;10;
46681;PMS5003;34101;53.430;-2.224;2023-06-14T01:22:44;13;13;
46681;PMS5003;34101;53.430;-2.224;2023-06-14T01:25:17;10;10;
46681;PMS5003;34101;53.430;-2.224;2023-06-14T01:27:46;11;11;
46681;PMS5003;34101;53.430;-2.224;2023-06-14T01:30:15;11;11;
46681;PMS5003;34101;53.430;-2.224;2023-06-14T01:32:43;14;12;
46681;PMS5003;34101;53.430;-2.224;2023-06-14T01:35:12;12;12;
46681;PMS5003;34101;53.430;-2.224;2023-06-14T01:37:40;17;14;
46681;PMS5003;34101;53.430;-2.224;2023-06-14T01:40:09;11;11;
46681;PMS5003;34101;53.430;-2.224;2023-06-14T01:42:39;12;12;
46681;PMS5003;34101;53.430;-2.224;2023-06-14T01:45:08;11;11;
46681;PMS5003;34101;53.430;-2.224;2023-06-14T01:47:36;12;11;
46681;PMS5003;34101;53.430;-2.224;2023-06-14T01:50:06;9;9;
46681;PMS5003;34101;53.430;-2.224;2023-06-14T01:52:36;8;8;
46681;PMS5003;34101;53.430;-2.224;2023-06-14T01:55:04;12;12;
46681;PMS5003;34101;53.430;-2.224;2023-06-14T01:57:32;8;8;
46681;PMS5003;34101;53.430;-2.224;2023-06-14T02:00:00;9;9;
46681;PMS5003;34101;53.430;-2.224;2023-06-14T02:02:28;9;9;
46681;PMS5003;34101;53.430;-2.224;2023-06-14T02:05:01;8;8;
46681;PMS5003;34101;53.430;-2.224;2023-06-14T02:07:29;8;8;
46681;PMS5003;34101;53.430;-2.224;2023-06-14T02:09:57;8;8;
46681;PMS5003;34101;53.430;-2.224;2023-06-14T02:12:24;8;8;
46681;PMS5003;34101;53.430;-2.224;2023-06-14T02:14:52;8;8;
46681;PMS5003;34101;53.430;-2.224;2023-06-14T02:17:25;8;8;
46681;PMS5003;34101;53.430;-2.224;2023-06-14T02:19:53;5;5;
46681;PMS5003;34101;53.430;-2.224;2023-06-14T02:22:20;6;6;
46681;PMS5003;34101;53.430;-2.224;2023-06-14T02:24:48;6;6;
46681;PMS5003;34101;53.430;-2.224;2023-06-14T02:27:16;9;7;
46681;PMS5003;34101;53.430;-2.224;2023-06-14T02:29:44;7;7;
46681;PMS5003;34101;53.430;-2.224;2023-06-14T02:32:12;7;7;
46681;PMS5003;34101;53.430;-2.224;2023-06-14T02:34:45;8;8;
46681;PMS5003;34101;53.430;-2.224;2023-06-14T02:37:12;7;7;
46681;PMS5003;34101;53.430;-2.224;2023-06-14T02:39:39;9;9;
46681;PMS5003;34101;53.430;-2.224;2023-06-14T02:42:07;7;7;
46681;PMS5003;34101;53.430;-2.224;2023-06-14T02:44:35;7;7;
46681;PMS5003;34101;53.430;-2.224;2023-06-14T02:47:02;6;6;
46681;PMS5003;34101;53.430;-2.224;2023-06-14T02:49:30;8;8;
46681;PMS5003;34101;53.430;-2.224;2023-06-14T02:51:58;8;8;
46681;PMS5003;34101;53.430;-2.224;2023-06-14T02:54:25;8;6;
46681;PMS5003;34101;53.430;-2.224;2023-06-14T02:56:53;8;7;
46681;PMS5003;34101;53.430;-2.224;2023-06-14T02:59:20;6;6;
46681;PMS5003;34101;53.430;-2.224;2023-06-14T03:01:48;8;8;
46681;PMS5003;34101;53.430;-2.224;2023-06-14T03:04:15;8;6;
46681;PMS5003;34101;53.430;-2.224;2023-06-14T03:06:43;8;8;
46681;PMS5003;34101;53.430;-2.224;2023-06-14T03:09:10;10;8;
46681;PMS5003;34101;53.430;-2.224;2023-06-14T03:11:38;7;7;
46681;PMS5003;34101;53.430;-2.224;2023-06-14T03:14:05;9;7;
46681;PMS5003;34101;53.430;-2.224;2023-06-14T03:16:33;9;9;
46681;PMS5003;34101;53.430;-2.224;2023-06-14T03:19:00;9;9;
46681;PMS5003;34101;53.430;-2.224;2023-06-14T03:21:27;5;5;
46681;PMS5003;34101;53.430;-2.224;2023-06-14T03:23:55;7;7;
46681;PMS5003;34101;53.430;-2.224;2023-06-14T03:26:22;9;9;
46681;PMS5003;34101;53.430;-2.224;2023-06-14T03:28:49;9;9;
46681;PMS5003;34101;53.430;-2.224;2023-06-14T03:31:22;11;10;
46681;PMS5003;34101;53.430;-2.224;2023-06-14T03:33:49;7;6;
46681;PMS5003;34101;53.430;-2.224;2023-06-14T03:36:17;6;6;
46681;PMS5003;34101;53.430;-2.224;2023-06-14T03:38:45;7;7;
46681;PMS5003;34101;53.430;-2.224;2023-06-14T03:41:13;10;9;
46681;PMS5003;34101;53.430;-2.224;2023-06-14T03:43:40;9;9;
46681;PMS5003;34101;53.430;-2.224;2023-06-14T03:46:08;9;9;
46681;PMS5003;34101;53.430;-2.224;2023-06-14T03:48:35;9;9;
46681;PMS5003;34101;53.430;-2.224;2023-06-14T03:51:03;5;5;
46681;PMS5003;34101;53.430;-2.224;2023-06-14T03:53:30;6;6;
46681;PMS5003;34101;53.430;-2.224;2023-06-14T03:55:58;5;5;
46681;PMS5003;34101;53.430;-2.224;2023-06-14T03:58:25;7;6;
46681;PMS5003;34101;53.430;-2.224;2023-06-14T04:00:54;6;4;
46681;PMS5003;34101;53.430;-2.224;2023-06-14T04:03:22;6;6;
46681;PMS5003;34101;53.430;-2.224;2023-06-14T04:05:49;5;4;
46681;PMS5003;34101;53.430;-2.224;2023-06-14T04:08:17;5;5;
46681;PMS5003;34101;53.430;-2.224;2023-06-14T04:10:45;4;4;
46681;PMS5003;34101;53.430;-2.224;2023-06-14T04:13:13;4;3;
46681;PMS5003;34101;53.430;-2.224;2023-06-14T04:15:40;7;6;
46681;PMS5003;34101;53.430;-2.224;2023-06-14T04:18:08;6;6;
46681;PMS5003;34101;53.430;-2.224;2023-06-14T04:20:35;9;7;
46681;PMS5003;34101;53.430;-2.224;2023-06-14T04:23:11;8;7;
46681;PMS5003;34101;53.430;-2.224;2023-06-14T04:25:40;6;6;
46681;PMS5003;34101;53.430;-2.224;2023-06-14T04:28:07;5;4;
46681;PMS5003;34101;53.430;-2.224;2023-06-14T04:30:35;4;4;
46681;PMS5003;34101;53.430;-2.224;2023-06-14T04:33:02;5;5;
46681;PMS5003;34101;53.430;-2.224;2023-06-14T04:35:30;7;7;
46681;PMS5003;34101;53.430;-2.224;2023-06-14T04:37:57;5;5;
46681;PMS5003;34101;53.430;-2.224;2023-06-14T04:40:25;6;6;
46681;PMS5003;34101;53.430;-2.224;2023-06-14T04:42:52;7;7;
46681;PMS5003;34101;53.430;-2.224;2023-06-14T04:45:20;8;7;
46681;PMS5003;34101;53.430;-2.224;2023-06-14T04:47:47;8;8;
46681;PMS5003;34101;53.430;-2.224;2023-06-14T04:50:15;9;9;
46681;PMS5003;34101;53.430;-2.224;2023-06-14T04:52:47;8;8;
46681;PMS5003;34101;53.430;-2.224;2023-06-14T04:55:15;9;9;
46681;PMS5003;34101;53.430;-2.224;2023-06-14T04:57:43;11;9;
46681;PMS5003;34101;53.430;-2.224;2023-06-14T05:00:11;7;7;
46681;PMS5003;34101;53.430;-2.224;2023-06-14T05:02:40;7;7;
46681;PMS5003;34101;53.430;-2.224;2023-06-14T05:05:08;7;7;
46681;PMS5003;34101;53.430;-2.224;2023-06-14T05:07:35;4;4;
46681;PMS5003;34101;53.430;-2.224;2023-06-14T05:10:03;6;6;
46681;PMS5003;34101;53.430;-2.224;2023-06-14T05:12:31;5;5;
46681;PMS5003;34101;53.430;-2.224;2023-06-14T05:14:58;8;8;
46681;PMS5003;34101;53.430;-2.224;2023-06-14T05:17:26;8;7;
46681;PMS5003;34101;53.430;-2.224;2023-06-14T05:19:53;6;6;
46681;PMS5003;34101;53.430;-2.224;2023-06-14T05:22:21;6;6;
46681;PMS5003;34101;53.430;-2.224;2023-06-14T05:24:48;7;7;
46681;PMS5003;34101;53.430;-2.224;2023-06-14T05:27:16;6;6;
46681;PMS5003;34101;53.430;-2.224;2023-06-14T05:29:43;9;7;
46681;PMS5003;34101;53.430;-2.224;2023-06-14T05:32:12;6;6;
46681;PMS5003;34101;53.430;-2.224;2023-06-14T05:34:39;7;7;
46681;PMS5003;34101;53.430;-2.224;2023-06-14T05:37:06;7;7;
46681;PMS5003;34101;53.430;-2.224;2023-06-14T05:39:34;9;6;
46681;PMS5003;34101;53.430;-2.224;2023-06-14T05:42:01;8;8;
46681;PMS5003;34101;53.430;-2.224;2023-06-14T05:44:29;6;6;
46681;PMS5003;34101;53.430;-2.224;2023-06-14T05:46:56;6;6;
46681;PMS5003;34101;53.430;-2.224;2023-06-14T05:49:24;5;5;
46681;PMS5003;34101;53.430;-2.224;2023-06-14T05:51:51;8;8;
46681;PMS5003;34101;53.430;-2.224;2023-06-14T05:54:19;6;6;
46681;PMS5003;34101;53.430;-2.224;2023-06-14T05:56:46;9;8;
46681;PMS5003;34101;53.430;-2.224;2023-06-14T05:59:14;6;6;
46681;PMS5003;34101;53.430;-2.224;2023-06-14T06:01:41;5;5;
46681;PMS5003;34101;53.430;-2.224;2023-06-14T06:04:09;5;5;
46681;PMS5003;34101;53.430;-2.224;2023-06-14T06:06:36;7;6;
46681;PMS5003;34101;53.430;-2.224;2023-06-14T06:09:03;7;7;
46681;PMS5003;34101;53.430;-2.224;2023-06-14T06:11:31;7;7;
46681;PMS5003;34101;53.430;-2.224;2023-06-14T06:13:58;6;6;
46681;PMS5003;34101;53.430;-2.224;2023-06-14T06:16:26;8;7;
46681;PMS5003;34101;53.430;-2.224;2023-06-14T06:18:53;9;9;
46681;PMS5003;34101;53.430;-2.224;2023-06-14T06:21:21;7;7;
46681;PMS5003;34101;53.430;-2.224;2023-06-14T06:23:48;6;6;
46681;PMS5003;34101;53.430;-2.224;2023-06-14T06:26:16;6;6;
46681;PMS5003;34101;53.430;-2.224;2023-06-14T06:28:43;7;7;
46681;PMS5003;34101;53.430;-2.224;2023-06-14T06:31:11;7;7;
46681;PMS5003;34101;53.430;-2.224;2023-06-14T06:33:38;8;8;
46681;PMS5003;34101;53.430;-2.224;2023-06-14T06:36:06;10;8;
46681;PMS5003;34101;53.430;-2.224;2023-06-14T06:38:33;7;6;
46681;PMS5003;34101;53.430;-2.224;2023-06-14T06:41:00;7;6;
46681;PMS5003;34101;53.430;-2.224;2023-06-14T06:43:28;7;7;
46681;PMS5003;34101;53.430;-2.224;2023-06-14T06:45:55;9;8;
46681;PMS5003;34101;53.430;-2.224;2023-06-14T06:48:28;8;6;
46681;PMS5003;34101;53.430;-2.224;2023-06-14T06:50:57;7;5;
46681;PMS5003;34101;53.430;-2.224;2023-06-14T06:53:24;7;7;
46681;PMS5003;34101;53.430;-2.224;2023-06-14T06:55:51;9;7;
46681;PMS5003;34101;53.430;-2.224;2023-06-14T06:58:19;7;7;
46681;PMS5003;34101;53.430;-2.224;2023-06-14T07:00:46;5;5;
46681;PMS5003;34101;53.430;-2.224;2023-06-14T07:03:19;3;3;
46681;PMS5003;34101;53.430;-2.224;2023-06-14T07:05:47;5;5;
46681;PMS5003;34101;53.430;-2.224;2023-06-14T07:08:14;5;5;
46681;PMS5003;34101;53.430;-2.224;2023-06-14T07:10:41;8;8;
46681;PMS5003;34101;53.430;-2.224;2023-06-14T07:13:09;4;4;
46681;PMS5003;34101;53.430;-2.224;2023-06-14T07:15:36;5;5;
46681;PMS5003;34101;53.430;-2.224;2023-06-14T07:18:04;6;6;
46681;PMS5003;34101;53.430;-2.224;2023-06-14T07:20:31;4;4;
46681;PMS5003;34101;53.430;-2.224;2023-06-14T07:22:59;5;5;
46681;PMS5003;34101;53.430;-2.224;2023-06-14T07:25:26;6;6;
46681;PMS5003;34101;53.430;-2.224;2023-06-14T07:27:54;6;4;
46681;PMS5003;34101;53.430;-2.224;2023-06-14T07:30:21;7;6;
46681;PMS5003;34101;53.430;-2.224;2023-06-14T07:32:49;4;4;
46681;PMS5003;34101;53.430;-2.224;2023-06-14T07:35:17;3;3;
46681;PMS5003;34101;53.430;-2.224;2023-06-14T07:37:44;4;4;
46681;PMS5003;34101;53.430;-2.224;2023-06-14T07:40:12;5;5;
46681;PMS5003;34101;53.430;-2.224;2023-06-14T07:42:40;5;5;
46681;PMS5003;34101;53.430;-2.224;2023-06-14T07:45:07;4;4;
46681;PMS5003;34101;53.430;-2.224;2023-06-14T07:47:35;4;4;
46681;PMS5003;34101;53.430;-2.224;2023-06-14T07:50:03;6;5;
46681;PMS5003;34101;53.430;-2.224;2023-06-14T07:52:36;6;5;
46681;PMS5003;34101;53.430;-2.224;2023-06-14T07:55:04;6;4;
46681;PMS5003;34101;53.430;-2.224;2023-06-14T07:57:32;5;5;
46681;PMS5003;34101;53.430;-2.224;2023-06-14T08:00:00;5;5;
46681;PMS5003;34101;53.430;-2.224;2023-06-14T08:02:27;6;5;
46681;PMS5003;34101;53.430;-2.224;2023-06-14T08:04:54;5;5;
46681;PMS5003;34101;53.430;-2.224;2023-06-14T08:07:23;5;5;
46681;PMS5003;34101;53.430;-2.224;2023-06-14T08:09:50;4;4;
46681;PMS5003;34101;53.430;-2.224;2023-06-14T08:12:19;6;4;
46681;PMS5003;34101;53.430;-2.224;2023-06-14T08:14:47;6;6;
46681;PMS5003;34101;53.430;-2.224;2023-06-14T08:17:15;5;4;
46681;PMS5003;34101;53.430;-2.224;2023-06-14T08:19:42;5;5;
46681;PMS5003;34101;53.430;-2.224;2023-06-14T08:22:10;6;4;
46681;PMS5003;34101;53.430;-2.224;2023-06-14T08:24:38;5;5;
46681;PMS5003;34101;53.430;-2.224;2023-06-14T08:27:06;5;5;
46681;PMS5003;34101;53.430;-2.224;2023-06-14T08:29:33;5;5;
46681;PMS5003;34101;53.430;-2.224;2023-06-14T08:32:00;3;3;
46681;PMS5003;34101;53.430;-2.224;2023-06-14T08:34:28;6;6;
46681;PMS5003;34101;53.430;-2.224;2023-06-14T08:36:56;5;5;
46681;PMS5003;34101;53.430;-2.224;2023-06-14T08:39:23;5;5;
46681;PMS5003;34101;53.430;-2.224;2023-06-14T08:41:50;4;4;
46681;PMS5003;34101;53.430;-2.224;2023-06-14T08:44:19;7;5;
46681;PMS5003;34101;53.430;-2.224;2023-06-14T08:46:47;5;5;
46681;PMS5003;34101;53.430;-2.224;2023-06-14T08:49:16;4;4;
46681;PMS5003;34101;53.430;-2.224;2023-06-14T08:51:44;6;5;
46681;PMS5003;34101;53.430;-2.224;2023-06-14T08:54:13;5;5;
46681;PMS5003;34101;53.430;-2.224;2023-06-14T08:56:41;4;4;
46681;PMS5003;34101;53.430;-2.224;2023-06-14T08:59:10;5;5;
46681;PMS5003;34101;53.430;-2.224;2023-06-14T09:01:38;4;4;
46681;PMS5003;34101;53.430;-2.224;2023-06-14T09:04:06;5;5;
46681;PMS5003;34101;53.430;-2.224;2023-06-14T09:06:34;6;6;
46681;PMS5003;34101;53.430;-2.224;2023-06-14T09:09:02;5;5;
46681;PMS5003;34101;53.430;-2.224;2023-06-14T09:11:30;3;3;
46681;PMS5003;34101;53.430;-2.224;2023-06-14T09:13:57;5;5;
46681;PMS5003;34101;53.430;-2.224;2023-06-14T09:16:25;3;3;
46681;PMS5003;34101;53.430;-2.224;2023-06-14T09:18:53;5;5;
46681;PMS5003;34101;53.430;-2.224;2023-06-14T09:21:21;5;5;
46681;PMS5003;34101;53.430;-2.224;2023-06-14T09:23:48;4;4;
46681;PMS5003;34101;53.430;-2.224;2023-06-14T09:26:17;5;5;
46681;PMS5003;34101;53.430;-2.224;2023-06-14T09:28:46;5;5;
46681;PMS5003;34101;53.430;-2.224;2023-06-14T09:31:15;7;7;
46681;PMS5003;34101;53.430;-2.224;2023-06-14T09:33:45;7;6;
46681;PMS5003;34101;53.430;-2.224;2023-06-14T09:36:15;5;4;
46681;PMS5003;34101;53.430;-2.224;2023-06-14T09:38:52;7;7;
46681;PMS5003;34101;53.430;-2.224;2023-06-14T09:41:20;7;6;
46681;PMS5003;34101;53.430;-2.224;2023-06-14T09:43:57;4;4;
46681;PMS5003;34101;53.430;-2.224;2023-06-14T09:46:26;6;6;
46681;PMS5003;34101;53.430;-2.224;2023-06-14T09:48:55;5;5;
46681;PMS5003;34101;53.430;-2.224;2023-06-14T09:51:24;6;6;
46681;PMS5003;34101;53.430;-2.224;2023-06-14T09:53:52;4;4;
46681;PMS5003;34101;53.430;-2.224;2023-06-14T09:56:23;7;7;
46681;PMS5003;34101;53.430;-2.224;2023-06-14T09:58:55;7;5;
46681;PMS5003;34101;53.430;-2.224;2023-06-14T10:01:24;6;6;
46681;PMS5003;34101;53.430;-2.224;2023-06-14T10:03:52;8;6;
46681;PMS5003;34101;53.430;-2.224;2023-06-14T10:06:24;7;7;
46681;PMS5003;34101;53.430;-2.224;2023-06-14T10:08:53;6;6;
46681;PMS5003;34101;53.430;-2.224;2023-06-14T10:11:23;6;5;
46681;PMS5003;34101;53.430;-2.224;2023-06-14T10:13:53;3;3;
46681;PMS5003;34101;53.430;-2.224;2023-06-14T10:16:24;6;6;
46681;PMS5003;34101;53.430;-2.224;2023-06-14T10:19:00;6;6;
46681;PMS5003;34101;53.430;-2.224;2023-06-14T10:21:46;7;5;
46681;PMS5003;34101;53.430;-2.224;2023-06-14T10:24:28;6;6;
46681;PMS5003;34101;53.430;-2.224;2023-06-14T10:26:59;7;6;
46681;PMS5003;34101;53.430;-2.224;2023-06-14T10:29:28;4;4;
46681;PMS5003;34101;53.430;-2.224;2023-06-14T10:31:56;6;6;
46681;PMS5003;34101;53.430;-2.224;2023-06-14T10:34:25;7;7;
46681;PMS5003;34101;53.430;-2.224;2023-06-14T10:37:02;8;8;
46681;PMS5003;34101;53.430;-2.224;2023-06-14T10:39:31;7;7;
46681;PMS5003;34101;53.430;-2.224;2023-06-14T10:42:02;8;6;
46681;PMS5003;34101;53.430;-2.224;2023-06-14T10:44:50;7;7;
46681;PMS5003;34101;53.430;-2.224;2023-06-14T10:47:24;7;7;
46681;PMS5003;34101;53.430;-2.224;2023-06-14T10:49:53;8;6;
46681;PMS5003;34101;53.430;-2.224;2023-06-14T10:52:23;9;8;
46681;PMS5003;34101;53.430;-2.224;2023-06-14T10:54:58;8;8;
46681;PMS5003;34101;53.430;-2.224;2023-06-14T10:57:27;10;9;
46681;PMS5003;34101;53.430;-2.224;2023-06-14T10:59:55;9;9;
46681;PMS5003;34101;53.430;-2.224;2023-06-14T11:02:48;7;7;
46681;PMS5003;34101;53.430;-2.224;2023-06-14T11:05:25;8;7;
46681;PMS5003;34101;53.430;-2.224;2023-06-14T11:07:58;9;8;
46681;PMS5003;34101;53.430;-2.224;2023-06-14T11:10:39;7;7;
46681;PMS5003;34101;53.430;-2.224;2023-06-14T11:13:08;7;7;
46681;PMS5003;34101;53.430;-2.224;2023-06-14T11:15:35;6;6;
46681;PMS5003;34101;53.430;-2.224;2023-06-14T11:18:05;7;7;
46681;PMS5003;34101;53.430;-2.224;2023-06-14T11:20:34;6;6;
46681;PMS5003;34101;53.430;-2.224;2023-06-14T11:23:03;6;6;
46681;PMS5003;34101;53.430;-2.224;2023-06-14T11:25:31;7;7;
46681;PMS5003;34101;53.430;-2.224;2023-06-14T11:27:58;8;7;
46681;PMS5003;34101;53.430;-2.224;2023-06-14T11:30:26;6;6;
46681;PMS5003;34101;53.430;-2.224;2023-06-14T11:32:54;10;9;
46681;PMS5003;34101;53.430;-2.224;2023-06-14T11:35:27;8;8;
46681;PMS5003;34101;53.430;-2.224;2023-06-14T11:37:55;14;14;
46681;PMS5003;34101;53.430;-2.224;2023-06-14T11:40:24;26;26;
46681;PMS5003;34101;53.430;-2.224;2023-06-14T11:42:58;14;12;
46681;PMS5003;34101;53.430;-2.224;2023-06-14T11:45:26;13;12;
46681;PMS5003;34101;53.430;-2.224;2023-06-14T11:47:54;10;9;
46681;PMS5003;34101;53.430;-2.224;2023-06-14T11:50:22;10;8;
46681;PMS5003;34101;53.430;-2.224;2023-06-14T11:52:52;10;10;
46681;PMS5003;34101;53.430;-2.224;2023-06-14T11:55:20;15;14;
46681;PMS5003;34101;53.430;-2.224;2023-06-14T11:57:48;9;9;
46681;PMS5003;34101;53.430;-2.224;2023-06-14T12:00:17;10;9;
46681;PMS5003;34101;53.430;-2.224;2023-06-14T12:02:52;9;9;
46681;PMS5003;34101;53.430;-2.224;2023-06-14T12:05:20;7;7;
46681;PMS5003;34101;53.430;-2.224;2023-06-14T12:07:48;9;7;
46681;PMS5003;34101;53.430;-2.224;2023-06-14T12:10:16;7;7;
46681;PMS5003;34101;53.430;-2.224;2023-06-14T12:12:44;6;6;
46681;PMS5003;34101;53.430;-2.224;2023-06-14T12:15:11;8;7;
46681;PMS5003;34101;53.430;-2.224;2023-06-14T12:17:39;7;7;
46681;PMS5003;34101;53.430;-2.224;2023-06-14T12:20:09;10;8;
46681;PMS5003;34101;53.430;-2.224;2023-06-14T12:22:38;5;5;
46681;PMS5003;34101;53.430;-2.224;2023-06-14T12:25:06;6;5;
46681;PMS5003;34101;53.430;-2.224;2023-06-14T12:27:34;8;5;
46681;PMS5003;34101;53.430;-2.224;2023-06-14T12:30:02;10;8;
46681;PMS5003;34101;53.430;-2.224;2023-06-14T12:32:36;7;6;
46681;PMS5003;34101;53.430;-2.224;2023-06-14T12:35:04;6;6;
46681;PMS5003;34101;53.430;-2.224;2023-06-14T12:37:32;7;7;
46681;PMS5003;34101;53.430;-2.224;2023-06-14T12:39:59;8;8;
46681;PMS5003;34101;53.430;-2.224;2023-06-14T12:42:27;7;7;
46681;PMS5003;34101;53.430;-2.224;2023-06-14T12:44:54;7;7;
46681;PMS5003;34101;53.430;-2.224;2023-06-14T12:47:22;6;6;
46681;PMS5003;34101;53.430;-2.224;2023-06-14T12:49:55;8;7;
46681;PMS5003;34101;53.430;-2.224;2023-06-14T12:52:22;7;7;
46681;PMS5003;34101;53.430;-2.224;2023-06-14T12:54:50;7;7;
46681;PMS5003;34101;53.430;-2.224;2023-06-14T12:57:17;7;7;
46681;PMS5003;34101;53.430;-2.224;2023-06-14T12:59:45;9;7;
46681;PMS5003;34101;53.430;-2.224;2023-06-14T13:02:13;7;7;
46681;PMS5003;34101;53.430;-2.224;2023-06-14T13:04:43;5;5;
46681;PMS5003;34101;53.430;-2.224;2023-06-14T13:07:11;6;6;
46681;PMS5003;34101;53.430;-2.224;2023-06-14T13:09:39;6;6;
46681;PMS5003;34101;53.430;-2.224;2023-06-14T13:12:07;9;7;
46681;PMS5003;34101;53.430;-2.224;2023-06-14T13:14:41;8;8;
46681;PMS5003;34101;53.430;-2.224;2023-06-14T13:17:14;8;7;
46681;PMS5003;34101;53.430;-2.224;2023-06-14T13:19:41;6;4;
46681;PMS5003;34101;53.430;-2.224;2023-06-14T13:22:09;6;6;
46681;PMS5003;34101;53.430;-2.224;2023-06-14T13:24:37;7;6;
46681;PMS5003;34101;53.430;-2.224;2023-06-14T13:27:04;7;6;
46681;PMS5003;34101;53.430;-2.224;2023-06-14T13:29:32;9;7;
46681;PMS5003;34101;53.430;-2.224;2023-06-14T13:32:00;7;7;
46681;PMS5003;34101;53.430;-2.224;2023-06-14T13:34:28;5;5;
46681;PMS5003;34101;53.430;-2.224;2023-06-14T13:36:55;6;6;
46681;PMS5003;34101;53.430;-2.224;2023-06-14T13:39:22;6;6;
46681;PMS5003;34101;53.430;-2.224;2023-06-14T13:41:50;6;6;
46681;PMS5003;34101;53.430;-2.224;2023-06-14T13:44:17;8;8;
46681;PMS5003;34101;53.430;-2.224;2023-06-14T13:46:45;7;6;
46681;PMS5003;34101;53.430;-2.224;2023-06-14T13:49:13;9;8;
46681;PMS5003;34101;53.430;-2.224;2023-06-14T13:51:41;8;7;
46681;PMS5003;34101;53.430;-2.224;2023-06-14T13:54:12;6;6;
46681;PMS5003;34101;53.430;-2.224;2023-06-14T13:56:39;7;7;
46681;PMS5003;34101;53.430;-2.224;2023-06-14T13:59:07;6;6;
46681;PMS5003;34101;53.430;-2.224;2023-06-14T14:01:34;6;6;
46681;PMS5003;34101;53.430;-2.224;2023-06-14T14:04:02;7;6;
46681;PMS5003;34101;53.430;-2.224;2023-06-14T14:06:29;7;7;
46681;PMS5003;34101;53.430;-2.224;2023-06-14T14:08:57;6;6;
46681;PMS5003;34101;53.430;-2.224;2023-06-14T14:11:25;7;7;
46681;PMS5003;34101;53.430;-2.224;2023-06-14T14:13:53;7;7;
46681;PMS5003;34101;53.430;-2.224;2023-06-14T14:16:20;7;7;
46681;PMS5003;34101;53.430;-2.224;2023-06-14T14:18:48;7;7;
46681;PMS5003;34101;53.430;-2.224;2023-06-14T14:21:15;6;6;
46681;PMS5003;34101;53.430;-2.224;2023-06-14T14:23:43;4;4;
46681;PMS5003;34101;53.430;-2.224;2023-06-14T14:26:11;7;7;
46681;PMS5003;34101;53.430;-2.224;2023-06-14T14:28:38;5;5;
46681;PMS5003;34101;53.430;-2.224;2023-06-14T14:31:06;6;5;
46681;PMS5003;34101;53.430;-2.224;2023-06-14T14:33:33;7;5;
46681;PMS5003;34101;53.430;-2.224;2023-06-14T14:36:01;6;6;
46681;PMS5003;34101;53.430;-2.224;2023-06-14T14:38:28;5;5;
46681;PMS5003;34101;53.430;-2.224;2023-06-14T14:40:57;6;6;
46681;PMS5003;34101;53.430;-2.224;2023-06-14T14:43:24;8;8;
46681;PMS5003;34101;53.430;-2.224;2023-06-14T14:45:51;6;6;
46681;PMS5003;34101;53.430;-2.224;2023-06-14T14:48:19;5;5;
46681;PMS5003;34101;53.430;-2.224;2023-06-14T14:50:47;6;6;
46681;PMS5003;34101;53.430;-2.224;2023-06-14T14:53:15;6;6;
46681;PMS5003;34101;53.430;-2.224;2023-06-14T14:55:49;6;6;
46681;PMS5003;34101;53.430;-2.224;2023-06-14T14:58:18;5;5;
46681;PMS5003;34101;53.430;-2.224;2023-06-14T15:00:45;5;5;
46681;PMS5003;34101;53.430;-2.224;2023-06-14T15:03:14;4;4;
46681;PMS5003;34101;53.430;-2.224;2023-06-14T15:05:42;5;5;
46681;PMS5003;34101;53.430;-2.224;2023-06-14T15:08:09;4;4;
46681;PMS5003;34101;53.430;-2.224;2023-06-14T15:10:37;6;6;
46681;PMS5003;34101;53.430;-2.224;2023-06-14T15:13:04;5;5;
46681;PMS5003;34101;53.430;-2.224;2023-06-14T15:15:32;9;8;
46681;PMS5003;34101;53.430;-2.224;2023-06-14T15:17:59;6;6;
46681;PMS5003;34101;53.430;-2.224;2023-06-14T15:20:27;5;5;
46681;PMS5003;34101;53.430;-2.224;2023-06-14T15:22:54;6;6;
46681;PMS5003;34101;53.430;-2.224;2023-06-14T15:25:22;5;5;
46681;PMS5003;34101;53.430;-2.224;2023-06-14T15:27:49;5;5;
46681;PMS5003;34101;53.430;-2.224;2023-06-14T15:30:17;4;4;
46681;PMS5003;34101;53.430;-2.224;2023-06-14T15:32:45;6;6;
46681;PMS5003;34101;53.430;-2.224;2023-06-14T15:35:13;5;5;
46681;PMS5003;34101;53.430;-2.224;2023-06-14T15:37:41;7;5;
46681;PMS5003;34101;53.430;-2.224;2023-06-14T15:40:09;5;5;
46681;PMS5003;34101;53.430;-2.224;2023-06-14T15:42:37;7;7;
46681;PMS5003;34101;53.430;-2.224;2023-06-14T15:45:05;7;5;
46681;PMS5003;34101;53.430;-2.224;2023-06-14T15:47:33;4;4;
46681;PMS5003;34101;53.430;-2.224;2023-06-14T15:50:00;7;5;
46681;PMS5003;34101;53.430;-2.224;2023-06-14T15:52:28;6;6;
46681;PMS5003;34101;53.430;-2.224;2023-06-14T15:54:55;3;3;
46681;PMS5003;34101;53.430;-2.224;2023-06-14T15:57:23;4;4;
46681;PMS5003;34101;53.430;-2.224;2023-06-14T15:59:51;4;4;
46681;PMS5003;34101;53.430;-2.224;2023-06-14T16:02:19;4;4;
46681;PMS5003;34101;53.430;-2.224;2023-06-14T16:04:48;5;3;
46681;PMS5003;34101;53.430;-2.224;2023-06-14T16:07:15;6;5;
46681;PMS5003;34101;53.430;-2.224;2023-06-14T16:09:43;5;5;
46681;PMS5003;34101;53.430;-2.224;2023-06-14T16:12:10;4;4;
46681;PMS5003;34101;53.430;-2.224;2023-06-14T16:14:38;5;5;
46681;PMS5003;34101;53.430;-2.224;2023-06-14T16:17:06;5;5;
46681;PMS5003;34101;53.430;-2.224;2023-06-14T16:19:38;4;4;
46681;PMS5003;34101;53.430;-2.224;2023-06-14T16:22:06;4;4;
46681;PMS5003;34101;53.430;-2.224;2023-06-14T16:24:33;6;5;
46681;PMS5003;34101;53.430;-2.224;2023-06-14T16:27:01;3;3;
46681;PMS5003;34101;53.430;-2.224;2023-06-14T16:29:28;5;4;
46681;PMS5003;34101;53.430;-2.224;2023-06-14T16:31:56;5;4;
46681;PMS5003;34101;53.430;-2.224;2023-06-14T16:34:23;3;3;
46681;PMS5003;34101;53.430;-2.224;2023-06-14T16:36:51;5;4;